Barnstable Municipal Boardman Polando Field Hyannis US
ICAO: KHYA
IATA: HYA
Category: Medium
Scheduled Services: Yes

Elevation: 54 ft
TransAlt. 18000 ft.

Airport Communications:
CAPE APP/DEP:118.2
ATIS:123.8
CLNC DEL:125.15
CTAF:119.5
GND:121.9
BRIDGEPORT RDO:126.425
HYANNIS TWR:119.5
UNICOM:122.95

KHYA Zoom In..

Runways:

(A) RW 06 length 5425 ft width 150 ft
---- / hdg 66

(B) RW 15 length 5253 ft width 150 ft
ILS 108.95 / hdg 156

(C) RW 24 length 5425 ft width 150 ft
ILS 109.15 / hdg 246

(D) RW 33 length 5253 ft width 150 ft
---- / hdg 336

Location; KHYA
Day. 20 / Time. 09.56 Zulu
* Altimeter: 29.90
* Temperature: 02° c. 35.6°f.
* Wind from: 290° Speed 08 kn.
Dewpoint: -02° c.
Visibility: 10 Statute Miles.
Clouds: Clear (automated report).

KHYA 200956Z 29008KT 10SM CLR 02/M02 A2990 RMK AO2 SLP125 T00171017


Wind From 290°
Speed 08 kn.

  YouTube Music Video
 
jpsmedia.com for Web Design  worldairports.se 2018   terms of use